createdAt,value
2022-08-16T00:01:26.478Z,12.60
2022-08-16T00:03:57.049Z,11.27
2022-08-16T00:06:25.371Z,10.02
2022-08-16T00:08:54.968Z,15.45
2022-08-16T00:13:53.432Z,9.17
2022-08-16T00:17:01.177Z,12.85
2022-08-16T00:19:13.392Z,11.15
2022-08-16T00:21:42.704Z,9.80
2022-08-16T00:24:12.808Z,12.60
2022-08-16T00:26:44.995Z,11.05
2022-08-16T00:29:16.039Z,9.73
2022-08-16T00:31:58.882Z,10.23
2022-08-16T00:34:44.637Z,10.27
2022-08-16T00:37:20.386Z,10.10
2022-08-16T00:39:57.566Z,10.40
2022-08-16T00:42:30.734Z,10.52
2022-08-16T00:45:08.286Z,10.40
2022-08-16T00:47:42.493Z,11.85
2022-08-16T00:50:17.071Z,9.05
2022-08-16T00:52:50.624Z,12.25
2022-08-16T00:55:23.348Z,11.13
2022-08-16T00:57:59.889Z,10.98
2022-08-16T01:00:30.858Z,9.70
2022-08-16T01:03:01.045Z,10.20
2022-08-16T01:05:30.428Z,12.93
2022-08-16T01:08:02.558Z,13.85
2022-08-16T01:10:53.021Z,9.88
2022-08-16T01:13:26.577Z,10.57
2022-08-16T01:15:57.821Z,10.43
2022-08-16T01:18:40.315Z,10.32
2022-08-16T01:21:22.486Z,10.52
2022-08-16T01:24:52.468Z,12.20
2022-08-16T01:27:06.434Z,9.25
2022-08-16T01:29:58.211Z,10.43
2022-08-16T01:32:33.198Z,9.68
2022-08-16T01:35:05.323Z,11.10
2022-08-16T01:37:42.346Z,10.18
2022-08-16T01:40:13.613Z,11.55
2022-08-16T01:42:48.014Z,10.13
2022-08-16T01:45:19.676Z,11.00
2022-08-16T01:47:51.229Z,11.85
2022-08-16T01:50:42.219Z,12.80
2022-08-16T01:53:11.159Z,11.35
2022-08-16T01:55:42.796Z,10.18
2022-08-16T01:58:23.834Z,10.10
2022-08-16T02:00:51.922Z,10.50
2022-08-16T02:03:24.533Z,11.38
2022-08-16T02:05:55.122Z,10.90
2022-08-16T02:08:33.670Z,10.20
2022-08-16T02:11:05.619Z,9.10
2022-08-16T02:13:33.921Z,10.80
2022-08-16T02:16:02.459Z,9.93
2022-08-16T02:18:30.478Z,10.05
2022-08-16T02:20:59.582Z,10.60
2022-08-16T02:23:29.563Z,8.70
2022-08-16T02:25:59.556Z,9.93
2022-08-16T02:28:30.097Z,12.30
2022-08-16T02:31:00.095Z,9.68
2022-08-16T02:33:43.907Z,8.68
2022-08-16T02:36:14.388Z,10.43
2022-08-16T02:39:02.323Z,9.85
2022-08-16T02:41:31.399Z,8.30
2022-08-16T02:44:03.724Z,8.07
2022-08-16T02:46:33.451Z,8.45
2022-08-16T02:49:02.067Z,8.48
2022-08-16T02:51:31.379Z,7.63
2022-08-16T02:54:00.241Z,7.90
2022-08-16T02:56:32.450Z,7.50
2022-08-16T02:59:01.157Z,6.78
2022-08-16T03:01:33.638Z,6.80
2022-08-16T03:04:40.838Z,8.77
2022-08-16T03:06:56.422Z,7.72
2022-08-16T03:09:28.525Z,6.55
2022-08-16T03:11:58.323Z,6.45
2022-08-16T03:14:29.115Z,11.40
2022-08-16T03:17:00.108Z,6.57
2022-08-16T03:19:48.433Z,5.78
2022-08-16T03:22:19.143Z,5.35
2022-08-16T03:24:58.006Z,5.95
2022-08-16T03:27:31.306Z,8.70
2022-08-16T03:30:17.263Z,5.25
2022-08-16T03:32:51.787Z,6.95
2022-08-16T03:35:23.275Z,7.30
2022-08-16T03:38:02.435Z,5.50
2022-08-16T03:40:33.864Z,6.55
2022-08-16T03:43:20.459Z,6.18
2022-08-16T03:45:52.699Z,9.20
2022-08-16T03:48:36.948Z,8.55
2022-08-16T03:51:12.166Z,7.60
2022-08-16T03:53:41.675Z,8.65
2022-08-16T03:56:19.878Z,7.55
2022-08-16T03:58:51.079Z,8.55
2022-08-16T04:01:21.366Z,11.77
2022-08-16T04:03:52.917Z,8.25
2022-08-16T04:06:23.257Z,10.15
2022-08-16T04:08:51.322Z,9.07
2022-08-16T04:11:19.601Z,7.28
2022-08-16T04:14:01.097Z,6.78
2022-08-16T04:16:37.262Z,9.75
2022-08-16T04:19:06.987Z,8.55
2022-08-16T04:21:47.328Z,8.13
2022-08-16T04:24:16.193Z,7.15
2022-08-16T04:26:46.404Z,7.40
2022-08-16T04:29:24.545Z,5.45
2022-08-16T04:31:56.518Z,6.10
2022-08-16T04:34:33.808Z,6.45
2022-08-16T04:37:02.557Z,4.97
2022-08-16T04:39:46.154Z,5.90
2022-08-16T04:42:16.595Z,6.70
2022-08-16T04:44:53.838Z,6.85
2022-08-16T04:47:33.035Z,13.45
2022-08-16T04:50:07.784Z,8.50
2022-08-16T04:52:36.192Z,9.13
2022-08-16T04:55:07.870Z,9.95
2022-08-16T04:57:36.945Z,6.55
2022-08-16T05:00:30.410Z,8.65
2022-08-16T05:03:02.939Z,5.93
2022-08-16T05:05:45.382Z,5.88
2022-08-16T05:08:29.720Z,6.68
2022-08-16T05:11:01.399Z,9.55
2022-08-16T05:13:40.461Z,6.85
2022-08-16T05:16:19.937Z,7.78
2022-08-16T05:18:51.352Z,5.78
2022-08-16T05:21:22.301Z,7.05
2022-08-16T05:23:55.669Z,4.47
2022-08-16T05:26:27.967Z,5.90
2022-08-16T05:28:57.227Z,5.65
2022-08-16T05:31:30.017Z,9.52
2022-08-16T05:33:59.796Z,6.30
2022-08-16T05:39:04.328Z,7.65
2022-08-16T05:41:32.362Z,4.53
2022-08-16T05:44:05.177Z,9.88
2022-08-16T05:46:34.445Z,10.43
2022-08-16T05:49:08.667Z,8.30
2022-08-16T05:51:40.450Z,14.07
2022-08-16T05:54:11.693Z,15.32
2022-08-16T05:56:43.262Z,11.45
2022-08-16T05:59:11.799Z,7.65
2022-08-16T06:01:41.282Z,9.38
2022-08-16T06:04:12.872Z,10.50
2022-08-16T06:07:00.879Z,5.57
2022-08-16T06:09:43.069Z,8.07
2022-08-16T06:12:26.785Z,7.13
2022-08-16T06:14:59.718Z,5.97
2022-08-16T06:17:43.344Z,6.05
2022-08-16T06:20:15.101Z,4.50
2022-08-16T06:22:57.543Z,11.63
2022-08-16T06:25:36.502Z,4.93
2022-08-16T06:28:10.234Z,6.53
2022-08-16T06:30:45.255Z,5.65
2022-08-16T06:33:22.038Z,5.28
2022-08-16T06:35:55.159Z,7.38
2022-08-16T06:38:33.710Z,4.68
2022-08-16T06:41:05.028Z,4.72
2022-08-16T06:43:34.956Z,3.85
2022-08-16T06:46:06.015Z,5.72
2022-08-16T06:48:42.884Z,9.40
2022-08-16T06:51:12.092Z,5.97
2022-08-16T06:53:44.308Z,6.38
2022-08-16T06:58:52.825Z,14.27
2022-08-16T07:01:42.939Z,12.50
2022-08-16T07:04:11.940Z,10.07
2022-08-16T07:06:43.149Z,9.00
2022-08-16T07:09:15.870Z,8.93
2022-08-16T07:11:46.200Z,6.95
2022-08-16T07:14:25.169Z,5.20
2022-08-16T07:16:58.257Z,4.50
2022-08-16T07:20:01.568Z,7.28
2022-08-16T07:22:38.177Z,3.88
2022-08-16T07:25:06.141Z,3.50
2022-08-16T07:27:37.232Z,4.15
2022-08-16T07:30:38.972Z,6.13
2022-08-16T07:32:57.397Z,3.60
2022-08-16T07:35:26.310Z,3.25
2022-08-16T07:37:54.595Z,3.05
2022-08-16T07:40:56.313Z,3.53
2022-08-16T07:43:13.790Z,2.95
2022-08-16T07:45:43.028Z,3.17
2022-08-16T07:48:12.650Z,5.55
2022-08-16T07:50:56.950Z,4.03
2022-08-16T07:53:28.955Z,2.80
2022-08-16T07:56:00.531Z,3.20
2022-08-16T07:58:34.677Z,2.42
2022-08-16T08:01:10.847Z,4.72
2022-08-16T08:03:48.345Z,2.47
2022-08-16T08:06:18.387Z,2.42
2022-08-16T08:11:23.679Z,3.63
2022-08-16T08:13:53.527Z,2.42
2022-08-16T08:16:30.390Z,3.22
2022-08-16T08:19:01.003Z,2.35
2022-08-16T08:22:00.816Z,4.03
2022-08-16T08:24:19.789Z,4.40
2022-08-16T08:26:50.251Z,4.97
2022-08-16T08:29:22.826Z,5.18
2022-08-16T08:31:53.135Z,3.30
2022-08-16T08:34:23.140Z,2.75
2022-08-16T08:36:54.545Z,3.28
2022-08-16T08:39:23.661Z,3.67
2022-08-16T08:41:53.433Z,2.85
2022-08-16T08:44:28.631Z,3.35
2022-08-16T08:47:01.384Z,3.90
2022-08-16T08:49:50.535Z,2.38
2022-08-16T08:52:35.089Z,3.20
2022-08-16T08:55:10.771Z,2.53
2022-08-16T08:57:41.676Z,6.28
2022-08-16T09:00:13.624Z,4.07
2022-08-16T09:02:44.669Z,3.20
2022-08-16T09:05:16.241Z,2.70
2022-08-16T09:08:00.250Z,2.72
2022-08-16T09:10:30.279Z,2.55
2022-08-16T09:13:00.123Z,6.18
2022-08-16T09:15:33.051Z,2.90
2022-08-16T09:18:25.372Z,4.38
2022-08-16T09:20:59.026Z,6.30
2022-08-16T09:23:28.904Z,3.53
2022-08-16T09:25:57.004Z,2.42
2022-08-16T09:29:13.592Z,4.18
2022-08-16T09:31:15.820Z,3.47
2022-08-16T09:33:45.094Z,2.55
2022-08-16T09:36:31.794Z,2.53
2022-08-16T09:39:03.360Z,3.83
2022-08-16T09:41:31.638Z,4.13
2022-08-16T09:45:13.145Z,2.60
2022-08-16T09:46:57.445Z,2.95
2022-08-16T09:49:37.272Z,5.28
2022-08-16T09:52:06.179Z,4.28
2022-08-16T09:54:38.252Z,2.33
2022-08-16T09:57:07.088Z,2.08
2022-08-16T09:59:41.856Z,2.92
2022-08-16T10:02:25.896Z,1.90
2022-08-16T10:04:57.639Z,2.57
2022-08-16T10:07:26.311Z,2.20
2022-08-16T10:10:12.346Z,2.90
2022-08-16T10:13:04.717Z,6.50
2022-08-16T10:15:35.461Z,3.20
2022-08-16T10:18:56.361Z,4.65
2022-08-16T10:20:56.096Z,2.05
2022-08-16T10:23:26.459Z,2.70
2022-08-16T10:27:17.135Z,2.67
2022-08-16T10:28:45.333Z,2.13
2022-08-16T10:31:16.861Z,2.25
2022-08-16T10:34:03.397Z,2.88
2022-08-16T10:36:39.346Z,2.10
2022-08-16T10:39:08.568Z,3.42
2022-08-16T10:41:36.961Z,3.55
2022-08-16T10:44:05.283Z,3.20
2022-08-16T10:46:41.534Z,2.40
2022-08-16T10:49:11.252Z,3.10
2022-08-16T10:52:01.511Z,2.35
2022-08-16T10:54:29.183Z,2.13
2022-08-16T10:56:59.181Z,2.15
2022-08-16T10:59:32.849Z,3.85
2022-08-16T11:02:59.225Z,2.20
2022-08-16T11:05:06.469Z,2.70
2022-08-16T11:07:43.316Z,2.03
2022-08-16T11:11:04.557Z,3.50
2022-08-16T11:15:55.782Z,4.55
2022-08-16T11:18:48.753Z,3.55
2022-08-16T11:21:29.387Z,4.82
2022-08-16T11:23:59.851Z,2.80
2022-08-16T11:26:28.604Z,3.95
2022-08-16T11:31:45.494Z,3.60
2022-08-16T11:34:15.676Z,2.50
2022-08-16T11:36:53.853Z,2.10
2022-08-16T11:39:30.051Z,2.50
2022-08-16T11:42:00.688Z,2.17
2022-08-16T11:44:53.102Z,2.25
2022-08-16T11:47:19.028Z,2.08
2022-08-16T11:49:48.452Z,5.65
2022-08-16T11:52:17.592Z,3.65
2022-08-16T11:54:53.771Z,3.50
2022-08-16T11:57:25.069Z,7.22
2022-08-16T11:59:54.960Z,2.80
2022-08-16T12:05:02.173Z,3.80
2022-08-16T12:07:33.229Z,3.83
2022-08-16T12:10:01.632Z,1.98
2022-08-16T12:12:30.381Z,2.28
2022-08-16T12:15:00.894Z,2.25
2022-08-16T12:20:01.700Z,3.15
2022-08-16T12:22:34.042Z,3.25
2022-08-16T12:25:06.046Z,3.88
2022-08-16T12:27:35.218Z,2.38
2022-08-16T12:30:21.337Z,2.20
2022-08-16T12:32:57.703Z,2.58
2022-08-16T12:35:29.587Z,2.13
2022-08-16T12:37:58.848Z,3.47
2022-08-16T12:40:29.938Z,3.70
2022-08-16T12:43:00.892Z,2.25
2022-08-16T12:45:31.425Z,2.13
2022-08-16T12:48:34.403Z,4.57
2022-08-16T12:51:13.737Z,3.53
2022-08-16T12:53:48.367Z,2.90
2022-08-16T12:56:19.268Z,3.70
2022-08-16T12:58:51.560Z,2.95
2022-08-16T13:01:22.729Z,2.28
2022-08-16T13:04:08.231Z,3.75
2022-08-16T13:06:42.066Z,2.65
2022-08-16T13:09:21.456Z,2.15
2022-08-16T13:12:00.253Z,3.85
2022-08-16T13:14:33.173Z,5.22
2022-08-16T13:17:03.882Z,1.90
2022-08-16T13:20:03.850Z,3.13
2022-08-16T13:22:25.956Z,2.90
2022-08-16T13:24:54.383Z,2.20
2022-08-16T13:30:35.376Z,3.45
2022-08-16T13:33:00.640Z,3.90
2022-08-16T13:35:34.835Z,3.45
2022-08-16T13:38:04.954Z,4.15
2022-08-16T13:40:34.564Z,3.92
2022-08-16T13:43:02.996Z,2.10
2022-08-16T13:45:36.425Z,2.22
2022-08-16T13:48:06.518Z,7.00
2022-08-16T13:50:51.757Z,2.72
2022-08-16T13:53:24.365Z,2.33
2022-08-16T13:55:58.008Z,3.30
2022-08-16T13:58:36.450Z,2.42
2022-08-16T14:01:09.878Z,3.75
2022-08-16T14:03:39.765Z,2.78
2022-08-16T14:06:10.931Z,3.70
2022-08-16T14:08:43.095Z,2.35
2022-08-16T14:11:12.622Z,2.17
2022-08-16T14:13:43.767Z,2.38
2022-08-16T14:16:24.477Z,2.63
2022-08-16T14:19:02.132Z,4.03
2022-08-16T14:21:35.242Z,2.90
2022-08-16T14:24:07.917Z,4.75
2022-08-16T14:26:51.094Z,4.30
2022-08-16T14:29:21.581Z,3.58
2022-08-16T14:31:53.690Z,3.28
2022-08-16T14:34:25.671Z,1.95
2022-08-16T14:36:57.440Z,2.92
2022-08-16T14:39:29.378Z,3.67
2022-08-16T14:42:03.275Z,2.05
2022-08-16T14:44:31.930Z,2.55
2022-08-16T14:47:00.068Z,3.10
2022-08-16T14:49:28.286Z,2.22
2022-08-16T14:52:01.124Z,4.00
2022-08-16T14:54:30.844Z,2.85
2022-08-16T14:56:58.957Z,2.33
2022-08-16T14:59:27.193Z,2.80
2022-08-16T15:02:00.741Z,3.88
2022-08-16T15:04:40.431Z,1.98
2022-08-16T15:07:21.829Z,4.30
2022-08-16T15:10:01.538Z,2.40
2022-08-16T15:12:33.902Z,2.17
2022-08-16T15:15:12.778Z,3.40
2022-08-16T15:17:56.256Z,2.63
2022-08-16T15:20:29.217Z,2.70
2022-08-16T15:22:59.196Z,3.80
2022-08-16T15:25:31.056Z,3.55
2022-08-16T15:28:02.197Z,2.42
2022-08-16T15:30:59.693Z,2.35
2022-08-16T15:33:21.491Z,2.00
2022-08-16T15:35:52.563Z,2.55
2022-08-16T15:38:58.147Z,2.47
2022-08-16T15:41:28.201Z,2.17
2022-08-16T15:44:05.611Z,3.25
2022-08-16T15:46:54.798Z,4.13
2022-08-16T15:49:34.720Z,3.53
2022-08-16T15:52:11.235Z,2.15
2022-08-16T15:54:51.416Z,2.60
2022-08-16T15:57:22.958Z,2.78
2022-08-16T15:59:52.672Z,2.42
2022-08-16T16:02:29.371Z,2.05
2022-08-16T16:05:02.402Z,3.30
2022-08-16T16:07:33.760Z,5.22
2022-08-16T16:10:03.211Z,1.98
2022-08-16T16:12:53.469Z,3.15
2022-08-16T16:15:25.172Z,1.77
2022-08-16T16:17:53.607Z,2.33
2022-08-16T16:20:27.149Z,2.00
2022-08-16T16:22:57.707Z,2.45
2022-08-16T16:25:26.318Z,4.30
2022-08-16T16:27:59.633Z,3.15
2022-08-16T16:30:37.733Z,2.97
2022-08-16T16:33:15.825Z,3.20
2022-08-16T16:35:55.268Z,3.92
2022-08-16T16:38:26.885Z,2.30
2022-08-16T16:40:55.400Z,2.95
2022-08-16T16:43:25.671Z,2.75
2022-08-16T16:45:54.537Z,2.75
2022-08-16T16:48:22.868Z,4.40
2022-08-16T16:50:58.496Z,2.40
2022-08-16T16:53:31.646Z,2.20
2022-08-16T16:56:00.142Z,2.50
2022-08-16T16:58:53.298Z,2.95
2022-08-16T17:01:34.889Z,3.25
2022-08-16T17:04:19.676Z,3.07
2022-08-16T17:06:53.608Z,3.50
2022-08-16T17:09:25.515Z,2.10
2022-08-16T17:14:32.192Z,2.70
2022-08-16T17:17:03.930Z,1.95
2022-08-16T17:19:32.275Z,2.78
2022-08-16T17:22:00.639Z,2.90
2022-08-16T17:24:39.259Z,3.97
2022-08-16T17:27:08.561Z,5.40
2022-08-16T17:29:42.671Z,3.78
2022-08-16T17:32:46.499Z,4.85
2022-08-16T17:35:03.035Z,4.03
2022-08-16T17:37:50.613Z,5.45
2022-08-16T17:40:47.365Z,4.75
2022-08-16T17:43:10.176Z,2.13
2022-08-16T17:45:40.145Z,3.17
2022-08-16T17:48:08.562Z,3.95
2022-08-16T17:50:36.936Z,2.78
2022-08-16T17:53:06.178Z,2.58
2022-08-16T17:55:36.860Z,4.70
2022-08-16T17:58:22.722Z,2.88
2022-08-16T18:00:56.183Z,3.97
2022-08-16T18:04:02.267Z,4.30
2022-08-16T18:06:17.703Z,3.72
2022-08-16T18:08:48.481Z,3.15
2022-08-16T18:11:25.842Z,2.53
2022-08-16T18:13:55.453Z,2.70
2022-08-16T18:16:25.492Z,3.97
2022-08-16T18:18:53.650Z,3.88
2022-08-16T18:21:40.194Z,3.63
2022-08-16T18:24:09.301Z,2.75
2022-08-16T18:26:37.902Z,2.97
2022-08-16T18:29:06.921Z,6.20
2022-08-16T18:31:36.628Z,7.07
2022-08-16T18:34:05.360Z,3.70
2022-08-16T18:36:34.626Z,5.43
2022-08-16T18:41:33.514Z,2.90
2022-08-16T18:44:26.104Z,3.55
2022-08-16T18:46:51.509Z,5.15
2022-08-16T18:49:20.622Z,4.95
2022-08-16T18:51:50.611Z,3.85
2022-08-16T18:54:19.090Z,4.47
2022-08-16T18:56:56.246Z,4.35
2022-08-16T18:59:27.748Z,2.97
2022-08-16T19:02:04.483Z,3.47
2022-08-16T19:04:50.601Z,4.35
2022-08-16T19:09:50.936Z,5.63
2022-08-16T19:12:37.886Z,3.40
2022-08-16T19:15:08.656Z,3.47
2022-08-16T19:17:41.908Z,3.88
2022-08-16T19:20:11.731Z,4.57
2022-08-16T19:28:51.774Z,3.65
2022-08-16T19:31:05.814Z,4.30
2022-08-16T19:33:35.213Z,4.63
2022-08-16T19:36:05.993Z,3.92
2022-08-16T19:38:34.191Z,5.88
2022-08-16T19:41:02.476Z,5.03
2022-08-16T19:43:30.572Z,5.80
2022-08-16T19:45:58.619Z,6.07
2022-08-16T19:48:26.673Z,4.07
2022-08-16T19:50:56.140Z,9.93
2022-08-16T19:53:24.896Z,4.05
2022-08-16T19:55:52.921Z,4.32
2022-08-16T19:58:21.024Z,4.95
2022-08-16T20:00:52.412Z,5.57
2022-08-16T20:03:24.970Z,3.97
2022-08-16T20:05:53.473Z,3.73
2022-08-16T20:08:23.250Z,5.03
2022-08-16T20:10:51.669Z,5.78
2022-08-16T20:13:22.345Z,4.63
2022-08-16T20:15:51.577Z,5.65
2022-08-16T20:18:24.541Z,4.72
2022-08-16T20:20:55.276Z,5.03
2022-08-16T20:23:25.521Z,4.15
2022-08-16T20:25:55.509Z,4.63
2022-08-16T20:28:53.103Z,5.55
2022-08-16T20:31:12.977Z,7.80
2022-08-16T20:33:41.095Z,3.90
2022-08-16T20:36:16.060Z,4.25
2022-08-16T20:38:47.472Z,6.82
2022-08-16T20:41:16.460Z,4.72
2022-08-16T20:43:45.450Z,4.10
2022-08-16T20:46:13.960Z,6.32
2022-08-16T20:48:42.065Z,5.10
2022-08-16T20:51:11.428Z,8.10
2022-08-16T20:56:10.093Z,4.97
2022-08-16T20:58:38.709Z,5.53
2022-08-16T21:01:08.043Z,7.53
2022-08-16T21:06:05.394Z,7.13
2022-08-16T21:08:51.830Z,8.13
2022-08-16T21:11:23.570Z,7.57
2022-08-16T21:13:57.175Z,6.30
2022-08-16T21:16:29.015Z,5.72
2022-08-16T21:18:57.745Z,5.47
2022-08-16T21:21:31.881Z,7.20
2022-08-16T21:24:01.840Z,7.40
2022-08-16T21:26:31.337Z,5.53
2022-08-16T21:28:59.440Z,5.18
2022-08-16T21:31:27.483Z,6.00
2022-08-16T21:33:56.428Z,6.05
2022-08-16T21:36:35.081Z,6.00
2022-08-16T21:39:06.503Z,4.90
2022-08-16T21:41:38.274Z,5.18
2022-08-16T21:44:06.749Z,5.78
2022-08-16T21:46:34.887Z,7.10
2022-08-16T21:49:04.609Z,4.90
2022-08-16T21:51:33.009Z,5.07
2022-08-16T21:54:01.085Z,5.60
2022-08-16T21:56:29.431Z,6.25
2022-08-16T21:58:58.838Z,7.25
2022-08-16T22:04:35.797Z,7.00
2022-08-16T22:06:43.881Z,5.70
2022-08-16T22:09:15.116Z,5.82
2022-08-16T22:11:44.020Z,6.25
2022-08-16T22:14:13.644Z,6.28
2022-08-16T22:16:43.431Z,7.32
2022-08-16T22:19:13.556Z,8.45
2022-08-16T22:21:41.807Z,7.55
2022-08-16T22:24:10.256Z,6.60
2022-08-16T22:26:43.044Z,7.00
2022-08-16T22:29:14.736Z,6.15
2022-08-16T22:31:44.257Z,16.02
2022-08-16T22:36:40.698Z,5.68
2022-08-16T22:39:10.909Z,9.27
2022-08-16T22:41:43.225Z,5.78
2022-08-16T22:44:11.296Z,6.47
2022-08-16T22:46:41.088Z,6.43
2022-08-16T22:49:09.917Z,7.90
2022-08-16T22:51:39.117Z,8.27
2022-08-16T22:54:41.304Z,7.22
2022-08-16T22:56:57.314Z,4.97
2022-08-16T22:59:25.955Z,4.88
2022-08-16T23:01:55.509Z,5.67
2022-08-16T23:06:53.160Z,5.70
2022-08-16T23:09:21.629Z,7.13
2022-08-16T23:11:49.700Z,6.07
2022-08-16T23:14:18.221Z,5.47
2022-08-16T23:16:47.327Z,7.35
2022-08-16T23:19:18.037Z,5.95
2022-08-16T23:21:49.171Z,5.15
2022-08-16T23:24:20.469Z,5.65
2022-08-16T23:26:49.736Z,5.20
2022-08-16T23:29:24.856Z,6.72
2022-08-16T23:31:56.964Z,6.55
2022-08-16T23:34:28.253Z,10.25
2022-08-16T23:36:56.905Z,5.70
2022-08-16T23:39:25.705Z,6.22
2022-08-16T23:41:54.093Z,4.85
2022-08-16T23:44:55.643Z,5.35
2022-08-16T23:47:10.839Z,5.13
2022-08-16T23:49:58.303Z,5.93
2022-08-16T23:52:48.856Z,6.07
2022-08-16T23:55:17.296Z,5.45
2022-08-16T23:57:45.975Z,5.97
